Hobbs, New Mexico
Current Conditions -  °F | °C
As of 9:50 AM on Wednesday 26 Nov 2014 (Local Time) from KHOB Reporting Station
Clear Clear  
Wind Chill: 13°   Ceiling: Unl
Heat Index: 13°   Visibility: 10mi
Dew Point: -7°   Wind: 18mph
Humidity: 25%   Direction: 10°N
Pressure: 30.29"   Gusts: 24mph
Location:  32.7°N, 103.12°W
Report Text: KHOB 261650Z 01016G21KT 10SM SKC 13/M07 A3029
Loading
Personal Weather Stations






























Interactive Weather Map New forecast layout! Learn more

10-Day Weather Forecast

Advertisements
Track Severe Weather on mobile